Cala Pula — IBID — position and weather

sailwx.info

Track history (hours):
 
Tides and Currents Weather Stations Pressure Air Temp Water Temp Dewpoint Dewpoint Depression Visibility Wind Speed Wind Dir Waves Ship Positions

Cala Pula

Last reported at 2014-Jul-12 04:10 UTC. Time now 2014-Jul-24 17:44 UTC.
Position N 37°33' W 000°34'.
Warning: this ship's position is 12 days out of date.

Length 189 m; draft 7.4 m.

Type: Cargo ship. MMSI: 247585000.

Date/timePositionNaut miles runAvg speedWind from/ knotsBaromVisibWave heightAir tempDewpointWater temp
2014-Jul-12 04:10N 37°33' W 000°34'1118.5
2014-Jul-12 03:33N 37°42' W 000°26'16818.7
2014-Jul-11 18:33N 40°01' E 001°38'1818.2
2014-Jul-11 17:33N 40°15' E 001°53'1818.0
2014-Jul-11 16:33N 40°29' E 002°07'1818.1
2014-Jul-11 15:33N 40°44' E 002°21'1818.3
2014-Jul-11 14:33N 40°59' E 002°35'18216.5
2014-Jul-11 03:33N 42°52' E 005°46'1918.7
2014-Jul-11 02:33N 42°53' E 006°11'1918.6
2014-Jul-11 01:33N 42°58' E 006°36'2020.2
2014-Jul-11 00:33N 43°11' E 006°57'2220.0
2014-Jul-10 23:28N 43°24' E 007°21'1819.7
2014-Jul-10 22:33N 43°35' E 007°41'5317.1
2014-Jul-10 19:26N 44°16' E 008°27'0 0.4
2014-Jul-10 18:33N 44°16' E 008°27'0 0.0
2014-Jul-10 11:32N 44°16' E 008°27'0 0.0
2014-Jul-10 10:31N 44°16' E 008°27'1 0.1
2014-Jul-10 04:06N 44°16' E 008°28'3 6.1
2014-Jul-10 03:33N 44°13' E 008°30'7717.7
2014-Jul-09 23:14N 43°20' E 007°14'1218.2
2014-Jul-09 22:34N 43°12' E 007°00'3917.8
2014-Jul-09 20:23N 42°53' E 006°15'1618.4
2014-Jul-09 19:31N 42°52' E 005°53'5918.0
2014-Jul-09 16:14N 42°49' E 004°33'1318.1
2014-Jul-09 15:31N 42°49' E 004°15'1818.5
2014-Jul-09 14:33N 42°48' E 003°51'1716.2
2014-Jul-09 13:31N 42°39' E 003°31'1717.0
2014-Jul-09 12:31N 42°23' E 003°25'1717.3
2014-Jul-09 11:33N 42°07' E 003°20'1817.6
2014-Jul-09 10:33N 41°50' E 003°12'2219.6
2014-Jul-09 09:25N 41°34' E 002°51'87 3.6
2014-Jul-08 09:11N 40°51' E 001°11'1219.4
2014-Jul-08 08:33N 40°39' E 001°07'19419.0
2014-Jul-07 22:20N 37°39' W 000°27'  
Track history (hours):
 
Tides and Currents Weather Stations Pressure Air Temp Water Temp Dewpoint Dewpoint Depression Visibility Wind Speed Wind Dir Waves Ship Positions

Cala Pula

Last reported at 2014-Jul-12 04:10 UTC. Time now 2014-Jul-24 17:44 UTC.
Position N 37°33' W 000°34'.
Warning: this ship's position is 12 days out of date.

Length 189 m; draft 7.4 m.

Type: Cargo ship. MMSI: 247585000.

Date/timePositionNaut miles runAvg speedWind from/ knotsBaromVisibWave heightAir tempDewpointWater temp
2014-Jul-12 04:10N 37°33' W 000°34'1118.5
2014-Jul-12 03:33N 37°42' W 000°26'16818.7
2014-Jul-11 18:33N 40°01' E 001°38'1818.2
2014-Jul-11 17:33N 40°15' E 001°53'1818.0
2014-Jul-11 16:33N 40°29' E 002°07'1818.1
2014-Jul-11 15:33N 40°44' E 002°21'1818.3
2014-Jul-11 14:33N 40°59' E 002°35'18216.5
2014-Jul-11 03:33N 42°52' E 005°46'1918.7
2014-Jul-11 02:33N 42°53' E 006°11'1918.6
2014-Jul-11 01:33N 42°58' E 006°36'2020.2
2014-Jul-11 00:33N 43°11' E 006°57'2220.0
2014-Jul-10 23:28N 43°24' E 007°21'1819.7
2014-Jul-10 22:33N 43°35' E 007°41'5317.1
2014-Jul-10 19:26N 44°16' E 008°27'0 0.4
2014-Jul-10 18:33N 44°16' E 008°27'0 0.0
2014-Jul-10 11:32N 44°16' E 008°27'0 0.0
2014-Jul-10 10:31N 44°16' E 008°27'1 0.1
2014-Jul-10 04:06N 44°16' E 008°28'3 6.1
2014-Jul-10 03:33N 44°13' E 008°30'7717.7
2014-Jul-09 23:14N 43°20' E 007°14'1218.2
2014-Jul-09 22:34N 43°12' E 007°00'3917.8
2014-Jul-09 20:23N 42°53' E 006°15'1618.4
2014-Jul-09 19:31N 42°52' E 005°53'5918.0
2014-Jul-09 16:14N 42°49' E 004°33'1318.1
2014-Jul-09 15:31N 42°49' E 004°15'1818.5
2014-Jul-09 14:33N 42°48' E 003°51'1716.2
2014-Jul-09 13:31N 42°39' E 003°31'1717.0
2014-Jul-09 12:31N 42°23' E 003°25'1717.3
2014-Jul-09 11:33N 42°07' E 003°20'1817.6
2014-Jul-09 10:33N 41°50' E 003°12'2219.6
2014-Jul-09 09:25N 41°34' E 002°51'87 3.6
2014-Jul-08 09:11N 40°51' E 001°11'1219.4
2014-Jul-08 08:33N 40°39' E 001°07'19419.0
2014-Jul-07 22:20N 37°39' W 000°27'  

Dump ship's entire track history